sensor_id;sensor_type;location;lat;lon;timestamp;P1;durP1;ratioP1;P2;durP2;ratioP2
14748;SDS011;7466;53.574;9.976;2022-07-11T00:00:01;4.60;;;2.20;;
14748;SDS011;7466;53.574;9.976;2022-07-11T00:02:29;5.63;;;2.30;;
14748;SDS011;7466;53.574;9.976;2022-07-11T00:04:56;11.23;;;2.10;;
14748;SDS011;7466;53.574;9.976;2022-07-11T00:07:23;6.97;;;1.90;;
14748;SDS011;7466;53.574;9.976;2022-07-11T00:09:52;10.97;;;2.10;;
14748;SDS011;7466;53.574;9.976;2022-07-11T00:12:19;7.97;;;2.53;;
14748;SDS011;7466;53.574;9.976;2022-07-11T00:14:46;3.57;;;2.00;;
14748;SDS011;7466;53.574;9.976;2022-07-11T00:17:14;6.90;;;2.27;;
14748;SDS011;7466;53.574;9.976;2022-07-11T00:19:41;6.43;;;2.17;;
14748;SDS011;7466;53.574;9.976;2022-07-11T00:22:09;4.77;;;1.70;;
14748;SDS011;7466;53.574;9.976;2022-07-11T00:24:36;8.83;;;2.03;;
14748;SDS011;7466;53.574;9.976;2022-07-11T00:27:03;4.10;;;1.70;;
14748;SDS011;7466;53.574;9.976;2022-07-11T00:29:31;5.97;;;1.90;;
14748;SDS011;7466;53.574;9.976;2022-07-11T00:31:58;4.93;;;1.70;;
14748;SDS011;7466;53.574;9.976;2022-07-11T00:34:27;7.50;;;2.33;;
14748;SDS011;7466;53.574;9.976;2022-07-11T00:36:53;5.53;;;2.00;;
14748;SDS011;7466;53.574;9.976;2022-07-11T00:39:20;4.57;;;2.00;;
14748;SDS011;7466;53.574;9.976;2022-07-11T00:41:47;6.87;;;2.00;;
14748;SDS011;7466;53.574;9.976;2022-07-11T00:44:14;6.83;;;1.70;;
14748;SDS011;7466;53.574;9.976;2022-07-11T00:46:41;5.80;;;2.03;;
14748;SDS011;7466;53.574;9.976;2022-07-11T00:49:08;6.60;;;2.10;;
14748;SDS011;7466;53.574;9.976;2022-07-11T00:51:36;3.87;;;2.20;;
14748;SDS011;7466;53.574;9.976;2022-07-11T00:54:05;7.80;;;1.87;;
14748;SDS011;7466;53.574;9.976;2022-07-11T00:56:33;2.43;;;1.77;;
14748;SDS011;7466;53.574;9.976;2022-07-11T00:59:00;5.90;;;1.90;;
14748;SDS011;7466;53.574;9.976;2022-07-11T01:01:28;8.40;;;1.73;;
14748;SDS011;7466;53.574;9.976;2022-07-11T01:03:55;3.63;;;1.80;;
14748;SDS011;7466;53.574;9.976;2022-07-11T01:06:22;4.00;;;1.70;;
14748;SDS011;7466;53.574;9.976;2022-07-11T01:08:50;5.63;;;1.70;;
14748;SDS011;7466;53.574;9.976;2022-07-11T01:11:17;3.07;;;1.60;;
14748;SDS011;7466;53.574;9.976;2022-07-11T01:13:44;5.43;;;1.90;;
14748;SDS011;7466;53.574;9.976;2022-07-11T01:16:12;4.07;;;1.50;;
14748;SDS011;7466;53.574;9.976;2022-07-11T01:18:41;5.13;;;1.80;;
14748;SDS011;7466;53.574;9.976;2022-07-11T01:21:11;5.77;;;1.50;;
14748;SDS011;7466;53.574;9.976;2022-07-11T01:23:48;5.70;;;1.60;;
14748;SDS011;7466;53.574;9.976;2022-07-11T01:26:15;3.47;;;1.80;;
14748;SDS011;7466;53.574;9.976;2022-07-11T01:28:43;5.37;;;2.10;;
14748;SDS011;7466;53.574;9.976;2022-07-11T01:31:12;2.30;;;1.67;;
14748;SDS011;7466;53.574;9.976;2022-07-11T01:33:39;2.40;;;1.60;;
14748;SDS011;7466;53.574;9.976;2022-07-11T01:36:06;4.17;;;1.90;;
14748;SDS011;7466;53.574;9.976;2022-07-11T01:38:34;3.97;;;1.57;;
14748;SDS011;7466;53.574;9.976;2022-07-11T01:41:02;8.17;;;1.90;;
14748;SDS011;7466;53.574;9.976;2022-07-11T01:43:29;4.10;;;1.67;;
14748;SDS011;7466;53.574;9.976;2022-07-11T01:45:56;4.97;;;1.70;;
14748;SDS011;7466;53.574;9.976;2022-07-11T01:48:24;2.93;;;1.70;;
14748;SDS011;7466;53.574;9.976;2022-07-11T01:50:51;8.77;;;1.70;;
14748;SDS011;7466;53.574;9.976;2022-07-11T01:53:18;4.20;;;1.63;;
14748;SDS011;7466;53.574;9.976;2022-07-11T01:55:45;7.83;;;2.17;;
14748;SDS011;7466;53.574;9.976;2022-07-11T01:58:13;4.33;;;1.70;;
14748;SDS011;7466;53.574;9.976;2022-07-11T02:00:40;3.60;;;1.60;;
14748;SDS011;7466;53.574;9.976;2022-07-11T02:03:07;4.53;;;1.87;;
14748;SDS011;7466;53.574;9.976;2022-07-11T02:05:34;4.70;;;2.00;;
14748;SDS011;7466;53.574;9.976;2022-07-11T02:08:04;12.80;;;1.80;;
14748;SDS011;7466;53.574;9.976;2022-07-11T02:10:38;4.77;;;2.40;;
14748;SDS011;7466;53.574;9.976;2022-07-11T02:13:06;4.30;;;1.93;;
14748;SDS011;7466;53.574;9.976;2022-07-11T02:15:36;5.23;;;1.90;;
14748;SDS011;7466;53.574;9.976;2022-07-11T02:18:03;2.87;;;1.60;;
14748;SDS011;7466;53.574;9.976;2022-07-11T02:20:30;3.60;;;1.87;;
14748;SDS011;7466;53.574;9.976;2022-07-11T02:22:57;4.37;;;1.60;;
14748;SDS011;7466;53.574;9.976;2022-07-11T02:25:24;3.13;;;1.63;;
14748;SDS011;7466;53.574;9.976;2022-07-11T02:27:51;4.30;;;1.70;;
14748;SDS011;7466;53.574;9.976;2022-07-11T02:30:18;3.43;;;1.60;;
14748;SDS011;7466;53.574;9.976;2022-07-11T02:32:46;5.63;;;1.97;;
14748;SDS011;7466;53.574;9.976;2022-07-11T02:35:14;4.43;;;1.80;;
14748;SDS011;7466;53.574;9.976;2022-07-11T02:37:41;4.47;;;1.90;;
14748;SDS011;7466;53.574;9.976;2022-07-11T02:40:08;2.90;;;1.97;;
14748;SDS011;7466;53.574;9.976;2022-07-11T02:42:36;2.77;;;1.80;;
14748;SDS011;7466;53.574;9.976;2022-07-11T02:45:03;4.30;;;1.67;;
14748;SDS011;7466;53.574;9.976;2022-07-11T02:47:33;7.53;;;1.70;;
14748;SDS011;7466;53.574;9.976;2022-07-11T02:50:02;3.57;;;1.70;;
14748;SDS011;7466;53.574;9.976;2022-07-11T02:52:29;4.07;;;1.70;;
14748;SDS011;7466;53.574;9.976;2022-07-11T02:54:56;6.20;;;2.13;;
14748;SDS011;7466;53.574;9.976;2022-07-11T02:57:23;5.03;;;1.67;;
14748;SDS011;7466;53.574;9.976;2022-07-11T02:59:51;3.47;;;1.50;;
14748;SDS011;7466;53.574;9.976;2022-07-11T03:02:18;4.27;;;1.97;;
14748;SDS011;7466;53.574;9.976;2022-07-11T03:04:44;7.37;;;1.90;;
14748;SDS011;7466;53.574;9.976;2022-07-11T03:07:13;3.67;;;1.90;;
14748;SDS011;7466;53.574;9.976;2022-07-11T03:09:41;2.70;;;1.70;;
14748;SDS011;7466;53.574;9.976;2022-07-11T03:12:10;3.53;;;1.93;;
14748;SDS011;7466;53.574;9.976;2022-07-11T03:14:37;4.80;;;1.80;;
14748;SDS011;7466;53.574;9.976;2022-07-11T03:17:04;4.10;;;1.97;;
14748;SDS011;7466;53.574;9.976;2022-07-11T03:19:31;5.80;;;1.93;;
14748;SDS011;7466;53.574;9.976;2022-07-11T03:21:57;5.33;;;1.80;;
14748;SDS011;7466;53.574;9.976;2022-07-11T03:24:26;3.27;;;1.70;;
14748;SDS011;7466;53.574;9.976;2022-07-11T03:26:52;5.53;;;1.73;;
14748;SDS011;7466;53.574;9.976;2022-07-11T03:29:19;2.43;;;1.80;;
14748;SDS011;7466;53.574;9.976;2022-07-11T03:31:46;4.70;;;1.90;;
14748;SDS011;7466;53.574;9.976;2022-07-11T03:34:13;3.23;;;1.90;;
14748;SDS011;7466;53.574;9.976;2022-07-11T03:36:40;5.93;;;2.00;;
14748;SDS011;7466;53.574;9.976;2022-07-11T03:39:10;6.77;;;1.80;;
14748;SDS011;7466;53.574;9.976;2022-07-11T03:41:38;5.70;;;1.77;;
14748;SDS011;7466;53.574;9.976;2022-07-11T03:44:05;4.53;;;2.40;;
14748;SDS011;7466;53.574;9.976;2022-07-11T03:46:32;5.90;;;2.17;;
14748;SDS011;7466;53.574;9.976;2022-07-11T03:48:59;3.90;;;2.00;;
14748;SDS011;7466;53.574;9.976;2022-07-11T03:51:25;6.60;;;2.30;;
14748;SDS011;7466;53.574;9.976;2022-07-11T03:53:52;2.97;;;1.90;;
14748;SDS011;7466;53.574;9.976;2022-07-11T03:56:19;8.70;;;2.30;;
14748;SDS011;7466;53.574;9.976;2022-07-11T03:58:49;6.07;;;2.33;;
14748;SDS011;7466;53.574;9.976;2022-07-11T04:01:16;6.30;;;2.13;;
14748;SDS011;7466;53.574;9.976;2022-07-11T04:03:45;4.60;;;2.07;;
14748;SDS011;7466;53.574;9.976;2022-07-11T04:06:11;4.43;;;2.03;;
14748;SDS011;7466;53.574;9.976;2022-07-11T04:08:39;7.53;;;2.20;;
14748;SDS011;7466;53.574;9.976;2022-07-11T04:11:06;3.87;;;2.10;;
14748;SDS011;7466;53.574;9.976;2022-07-11T04:13:33;5.63;;;1.80;;
14748;SDS011;7466;53.574;9.976;2022-07-11T04:16:02;6.00;;;1.97;;
14748;SDS011;7466;53.574;9.976;2022-07-11T04:18:29;7.63;;;2.00;;
14748;SDS011;7466;53.574;9.976;2022-07-11T04:20:56;9.13;;;2.77;;
14748;SDS011;7466;53.574;9.976;2022-07-11T04:23:23;6.80;;;1.97;;
14748;SDS011;7466;53.574;9.976;2022-07-11T04:25:50;7.83;;;2.23;;
14748;SDS011;7466;53.574;9.976;2022-07-11T04:28:17;6.33;;;2.30;;
14748;SDS011;7466;53.574;9.976;2022-07-11T04:30:44;8.53;;;2.27;;
14748;SDS011;7466;53.574;9.976;2022-07-11T04:33:13;7.80;;;2.57;;
14748;SDS011;7466;53.574;9.976;2022-07-11T04:35:40;8.50;;;2.20;;
14748;SDS011;7466;53.574;9.976;2022-07-11T04:38:07;7.53;;;2.37;;
14748;SDS011;7466;53.574;9.976;2022-07-11T04:40:34;5.93;;;2.40;;
14748;SDS011;7466;53.574;9.976;2022-07-11T04:43:01;6.77;;;2.20;;
14748;SDS011;7466;53.574;9.976;2022-07-11T04:45:29;11.30;;;2.40;;
14748;SDS011;7466;53.574;9.976;2022-07-11T04:47:56;5.90;;;2.30;;
14748;SDS011;7466;53.574;9.976;2022-07-11T04:50:25;10.37;;;2.33;;
14748;SDS011;7466;53.574;9.976;2022-07-11T04:52:53;7.37;;;2.30;;
14748;SDS011;7466;53.574;9.976;2022-07-11T04:55:19;10.17;;;2.30;;
14748;SDS011;7466;53.574;9.976;2022-07-11T04:57:47;10.93;;;2.87;;
14748;SDS011;7466;53.574;9.976;2022-07-11T05:00:14;4.60;;;2.17;;
14748;SDS011;7466;53.574;9.976;2022-07-11T05:02:41;8.37;;;2.30;;
14748;SDS011;7466;53.574;9.976;2022-07-11T05:05:08;7.90;;;2.10;;
14748;SDS011;7466;53.574;9.976;2022-07-11T05:07:37;10.10;;;2.33;;
14748;SDS011;7466;53.574;9.976;2022-07-11T05:10:04;8.27;;;2.47;;
14748;SDS011;7466;53.574;9.976;2022-07-11T05:12:32;7.37;;;2.43;;
14748;SDS011;7466;53.574;9.976;2022-07-11T05:14:59;5.60;;;2.23;;
14748;SDS011;7466;53.574;9.976;2022-07-11T05:17:26;8.77;;;2.27;;
14748;SDS011;7466;53.574;9.976;2022-07-11T05:19:53;5.67;;;2.10;;
14748;SDS011;7466;53.574;9.976;2022-07-11T05:22:20;8.00;;;2.07;;
14748;SDS011;7466;53.574;9.976;2022-07-11T05:24:49;6.67;;;2.27;;
14748;SDS011;7466;53.574;9.976;2022-07-11T05:27:16;6.97;;;2.10;;
14748;SDS011;7466;53.574;9.976;2022-07-11T05:29:42;10.70;;;2.63;;
14748;SDS011;7466;53.574;9.976;2022-07-11T05:32:09;5.53;;;1.93;;
14748;SDS011;7466;53.574;9.976;2022-07-11T05:34:37;10.77;;;2.40;;
14748;SDS011;7466;53.574;9.976;2022-07-11T05:37:04;5.63;;;1.97;;
14748;SDS011;7466;53.574;9.976;2022-07-11T05:39:31;5.13;;;2.03;;
14748;SDS011;7466;53.574;9.976;2022-07-11T05:41:59;8.40;;;2.20;;
14748;SDS011;7466;53.574;9.976;2022-07-11T05:44:26;4.07;;;2.10;;
14748;SDS011;7466;53.574;9.976;2022-07-11T05:46:57;3.17;;;1.80;;
14748;SDS011;7466;53.574;9.976;2022-07-11T05:49:26;9.33;;;2.00;;
14748;SDS011;7466;53.574;9.976;2022-07-11T05:51:53;6.27;;;2.67;;
14748;SDS011;7466;53.574;9.976;2022-07-11T05:54:20;4.97;;;1.87;;
14748;SDS011;7466;53.574;9.976;2022-07-11T05:56:47;6.00;;;2.00;;
14748;SDS011;7466;53.574;9.976;2022-07-11T05:59:15;11.57;;;3.70;;
14748;SDS011;7466;53.574;9.976;2022-07-11T06:01:43;7.30;;;2.00;;
14748;SDS011;7466;53.574;9.976;2022-07-11T06:04:09;5.10;;;1.83;;
14748;SDS011;7466;53.574;9.976;2022-07-11T06:06:37;9.13;;;1.90;;
14748;SDS011;7466;53.574;9.976;2022-07-11T06:09:04;3.67;;;1.80;;
14748;SDS011;7466;53.574;9.976;2022-07-11T06:11:30;3.90;;;1.73;;
14748;SDS011;7466;53.574;9.976;2022-07-11T06:13:57;6.30;;;2.20;;
14748;SDS011;7466;53.574;9.976;2022-07-11T06:16:26;6.20;;;1.97;;
14748;SDS011;7466;53.574;9.976;2022-07-11T06:18:54;8.10;;;1.83;;
14748;SDS011;7466;53.574;9.976;2022-07-11T06:21:20;4.90;;;2.17;;
14748;SDS011;7466;53.574;9.976;2022-07-11T06:23:48;5.70;;;1.63;;
14748;SDS011;7466;53.574;9.976;2022-07-11T06:26:15;4.83;;;1.70;;
14748;SDS011;7466;53.574;9.976;2022-07-11T06:28:44;4.33;;;1.40;;
14748;SDS011;7466;53.574;9.976;2022-07-11T06:31:11;11.47;;;2.00;;
14748;SDS011;7466;53.574;9.976;2022-07-11T06:33:40;7.17;;;2.00;;
14748;SDS011;7466;53.574;9.976;2022-07-11T06:36:07;3.93;;;1.67;;
14748;SDS011;7466;53.574;9.976;2022-07-11T06:38:34;7.10;;;2.20;;
14748;SDS011;7466;53.574;9.976;2022-07-11T06:41:01;5.43;;;1.50;;
14748;SDS011;7466;53.574;9.976;2022-07-11T06:43:28;4.50;;;1.53;;
14748;SDS011;7466;53.574;9.976;2022-07-11T06:45:56;4.53;;;1.50;;
14748;SDS011;7466;53.574;9.976;2022-07-11T06:48:24;3.73;;;1.23;;
14748;SDS011;7466;53.574;9.976;2022-07-11T06:50:53;4.57;;;1.63;;
14748;SDS011;7466;53.574;9.976;2022-07-11T06:53:20;4.27;;;1.50;;
14748;SDS011;7466;53.574;9.976;2022-07-11T06:55:47;6.13;;;1.67;;
14748;SDS011;7466;53.574;9.976;2022-07-11T06:58:14;5.60;;;2.00;;
14748;SDS011;7466;53.574;9.976;2022-07-11T07:00:57;3.40;;;1.43;;
14748;SDS011;7466;53.574;9.976;2022-07-11T07:03:24;3.77;;;1.43;;
14748;SDS011;7466;53.574;9.976;2022-07-11T07:05:51;2.40;;;1.40;;
14748;SDS011;7466;53.574;9.976;2022-07-11T07:08:21;3.60;;;1.17;;
14748;SDS011;7466;53.574;9.976;2022-07-11T07:10:52;3.13;;;1.47;;
14748;SDS011;7466;53.574;9.976;2022-07-11T07:13:19;8.47;;;1.77;;
14748;SDS011;7466;53.574;9.976;2022-07-11T07:15:48;5.40;;;1.63;;
14748;SDS011;7466;53.574;9.976;2022-07-11T07:18:16;3.47;;;1.57;;
14748;SDS011;7466;53.574;9.976;2022-07-11T07:20:43;4.93;;;1.30;;
14748;SDS011;7466;53.574;9.976;2022-07-11T07:23:11;1.57;;;1.00;;
14748;SDS011;7466;53.574;9.976;2022-07-11T07:25:38;2.83;;;1.30;;
14748;SDS011;7466;53.574;9.976;2022-07-11T07:28:05;2.93;;;1.30;;
14748;SDS011;7466;53.574;9.976;2022-07-11T07:30:32;4.33;;;1.07;;
14748;SDS011;7466;53.574;9.976;2022-07-11T07:32:59;5.17;;;1.10;;
14748;SDS011;7466;53.574;9.976;2022-07-11T07:35:26;2.40;;;1.10;;
14748;SDS011;7466;53.574;9.976;2022-07-11T07:37:53;2.37;;;1.27;;
14748;SDS011;7466;53.574;9.976;2022-07-11T07:40:22;2.63;;;1.17;;
14748;SDS011;7466;53.574;9.976;2022-07-11T07:42:48;5.10;;;1.30;;
14748;SDS011;7466;53.574;9.976;2022-07-11T07:45:15;3.87;;;1.13;;
14748;SDS011;7466;53.574;9.976;2022-07-11T07:47:42;2.63;;;1.10;;
14748;SDS011;7466;53.574;9.976;2022-07-11T07:50:09;1.80;;;0.90;;
14748;SDS011;7466;53.574;9.976;2022-07-11T07:52:36;2.70;;;1.10;;
14748;SDS011;7466;53.574;9.976;2022-07-11T07:55:03;2.30;;;1.10;;
14748;SDS011;7466;53.574;9.976;2022-07-11T07:57:32;3.10;;;1.33;;
14748;SDS011;7466;53.574;9.976;2022-07-11T07:59:59;2.63;;;1.10;;
14748;SDS011;7466;53.574;9.976;2022-07-11T08:02:40;3.10;;;1.60;;
14748;SDS011;7466;53.574;9.976;2022-07-11T08:05:07;3.67;;;1.00;;
14748;SDS011;7466;53.574;9.976;2022-07-11T08:07:35;2.43;;;1.20;;
14748;SDS011;7466;53.574;9.976;2022-07-11T08:10:04;3.27;;;1.43;;
14748;SDS011;7466;53.574;9.976;2022-07-11T08:12:33;1.63;;;1.07;;
14748;SDS011;7466;53.574;9.976;2022-07-11T08:14:59;3.10;;;1.00;;
14748;SDS011;7466;53.574;9.976;2022-07-11T08:17:26;2.77;;;1.50;;
14748;SDS011;7466;53.574;9.976;2022-07-11T08:19:54;4.17;;;1.40;;
14748;SDS011;7466;53.574;9.976;2022-07-11T08:22:21;1.40;;;1.17;;
14748;SDS011;7466;53.574;9.976;2022-07-11T08:24:48;3.80;;;1.50;;
14748;SDS011;7466;53.574;9.976;2022-07-11T08:27:14;2.40;;;1.10;;
14748;SDS011;7466;53.574;9.976;2022-07-11T08:29:43;2.63;;;1.30;;
14748;SDS011;7466;53.574;9.976;2022-07-11T08:32:09;3.87;;;1.60;;
14748;SDS011;7466;53.574;9.976;2022-07-11T08:34:37;1.30;;;1.03;;
14748;SDS011;7466;53.574;9.976;2022-07-11T08:37:04;2.13;;;1.07;;
14748;SDS011;7466;53.574;9.976;2022-07-11T08:39:31;1.57;;;1.30;;
14748;SDS011;7466;53.574;9.976;2022-07-11T08:41:58;2.53;;;1.43;;
14748;SDS011;7466;53.574;9.976;2022-07-11T08:44:25;2.50;;;1.20;;
14748;SDS011;7466;53.574;9.976;2022-07-11T08:46:54;3.20;;;1.20;;
14748;SDS011;7466;53.574;9.976;2022-07-11T08:49:24;1.77;;;1.20;;
14748;SDS011;7466;53.574;9.976;2022-07-11T08:51:53;2.70;;;1.10;;
14748;SDS011;7466;53.574;9.976;2022-07-11T08:54:20;1.77;;;1.33;;
14748;SDS011;7466;53.574;9.976;2022-07-11T08:56:47;1.87;;;1.10;;
14748;SDS011;7466;53.574;9.976;2022-07-11T08:59:15;2.73;;;0.83;;
14748;SDS011;7466;53.574;9.976;2022-07-11T09:01:44;2.73;;;1.13;;
14748;SDS011;7466;53.574;9.976;2022-07-11T09:04:13;1.83;;;1.00;;
14748;SDS011;7466;53.574;9.976;2022-07-11T09:06:42;1.30;;;1.10;;
14748;SDS011;7466;53.574;9.976;2022-07-11T09:09:09;2.23;;;0.90;;
14748;SDS011;7466;53.574;9.976;2022-07-11T09:11:48;4.97;;;1.20;;
14748;SDS011;7466;53.574;9.976;2022-07-11T09:14:20;2.97;;;1.20;;
14748;SDS011;7466;53.574;9.976;2022-07-11T09:16:52;1.40;;;1.10;;
14748;SDS011;7466;53.574;9.976;2022-07-11T09:19:21;1.27;;;1.00;;
14748;SDS011;7466;53.574;9.976;2022-07-11T09:21:56;2.70;;;1.03;;
14748;SDS011;7466;53.574;9.976;2022-07-11T09:24:54;1.60;;;1.20;;
14748;SDS011;7466;53.574;9.976;2022-07-11T09:27:40;2.53;;;1.07;;
14748;SDS011;7466;53.574;9.976;2022-07-11T09:30:16;1.17;;;0.90;;
14748;SDS011;7466;53.574;9.976;2022-07-11T09:32:52;1.57;;;1.03;;
14748;SDS011;7466;53.574;9.976;2022-07-11T09:35:26;1.70;;;0.90;;
14748;SDS011;7466;53.574;9.976;2022-07-11T09:37:54;2.07;;;1.00;;
14748;SDS011;7466;53.574;9.976;2022-07-11T09:40:23;1.17;;;0.90;;
14748;SDS011;7466;53.574;9.976;2022-07-11T09:42:52;0.90;;;0.80;;
14748;SDS011;7466;53.574;9.976;2022-07-11T09:45:21;1.90;;;1.10;;
14748;SDS011;7466;53.574;9.976;2022-07-11T09:47:49;1.47;;;1.10;;
14748;SDS011;7466;53.574;9.976;2022-07-11T09:50:17;4.27;;;0.93;;
14748;SDS011;7466;53.574;9.976;2022-07-11T09:55:32;1.40;;;0.80;;
14748;SDS011;7466;53.574;9.976;2022-07-11T09:58:02;2.03;;;0.90;;
14748;SDS011;7466;53.574;9.976;2022-07-11T10:00:30;2.03;;;0.80;;
14748;SDS011;7466;53.574;9.976;2022-07-11T10:02:58;1.60;;;1.00;;
14748;SDS011;7466;53.574;9.976;2022-07-11T10:05:25;1.47;;;1.10;;
14748;SDS011;7466;53.574;9.976;2022-07-11T10:07:52;2.20;;;1.20;;
14748;SDS011;7466;53.574;9.976;2022-07-11T10:10:22;1.10;;;0.90;;
14748;SDS011;7466;53.574;9.976;2022-07-11T10:12:50;1.43;;;1.00;;
14748;SDS011;7466;53.574;9.976;2022-07-11T10:15:23;1.07;;;0.97;;
14748;SDS011;7466;53.574;9.976;2022-07-11T10:17:58;2.77;;;1.37;;
14748;SDS011;7466;53.574;9.976;2022-07-11T10:20:33;2.70;;;1.00;;
14748;SDS011;7466;53.574;9.976;2022-07-11T10:23:08;1.30;;;1.20;;
14748;SDS011;7466;53.574;9.976;2022-07-11T10:25:42;1.42;;;0.90;;
14748;SDS011;7466;53.574;9.976;2022-07-11T10:28:16;0.90;;;0.70;;
14748;SDS011;7466;53.574;9.976;2022-07-11T10:30:51;2.93;;;0.90;;
14748;SDS011;7466;53.574;9.976;2022-07-11T10:35:50;3.20;;;0.97;;
14748;SDS011;7466;53.574;9.976;2022-07-11T10:38:18;0.98;;;0.82;;
14748;SDS011;7466;53.574;9.976;2022-07-11T10:40:48;3.03;;;1.07;;
14748;SDS011;7466;53.574;9.976;2022-07-11T10:43:36;1.48;;;1.05;;
14748;SDS011;7466;53.574;9.976;2022-07-11T10:46:06;1.35;;;0.93;;
14748;SDS011;7466;53.574;9.976;2022-07-11T10:48:34;1.95;;;1.00;;
14748;SDS011;7466;53.574;9.976;2022-07-11T10:51:10;2.72;;;0.90;;
14748;SDS011;7466;53.574;9.976;2022-07-11T10:53:51;1.50;;;1.03;;
14748;SDS011;7466;53.574;9.976;2022-07-11T10:59:11;3.40;;;1.20;;
14748;SDS011;7466;53.574;9.976;2022-07-11T11:04:44;1.20;;;1.03;;
14748;SDS011;7466;53.574;9.976;2022-07-11T11:07:32;1.20;;;1.10;;
14748;SDS011;7466;53.574;9.976;2022-07-11T11:10:01;0.80;;;0.77;;
14748;SDS011;7466;53.574;9.976;2022-07-11T11:15:48;1.33;;;0.93;;
14748;SDS011;7466;53.574;9.976;2022-07-11T11:21:20;2.27;;;1.20;;
14748;SDS011;7466;53.574;9.976;2022-07-11T11:24:01;1.40;;;0.90;;
14748;SDS011;7466;53.574;9.976;2022-07-11T11:26:41;1.23;;;1.00;;
14748;SDS011;7466;53.574;9.976;2022-07-11T11:29:13;3.85;;;1.40;;
14748;SDS011;7466;53.574;9.976;2022-07-11T11:31:49;1.33;;;1.10;;
14748;SDS011;7466;53.574;9.976;2022-07-11T11:34:17;1.23;;;1.13;;
14748;SDS011;7466;53.574;9.976;2022-07-11T11:36:44;1.98;;;1.27;;
14748;SDS011;7466;53.574;9.976;2022-07-11T11:39:26;3.17;;;1.33;;
14748;SDS011;7466;53.574;9.976;2022-07-11T11:42:00;2.97;;;1.40;;
14748;SDS011;7466;53.574;9.976;2022-07-11T11:44:29;1.98;;;1.20;;
14748;SDS011;7466;53.574;9.976;2022-07-11T11:46:58;1.75;;;1.40;;
14748;SDS011;7466;53.574;9.976;2022-07-11T11:49:25;1.52;;;1.30;;
14748;SDS011;7466;53.574;9.976;2022-07-11T11:51:53;1.40;;;1.30;;
14748;SDS011;7466;53.574;9.976;2022-07-11T11:54:22;1.30;;;1.20;;
14748;SDS011;7466;53.574;9.976;2022-07-11T11:56:50;1.20;;;1.10;;
14748;SDS011;7466;53.574;9.976;2022-07-11T11:59:17;1.02;;;1.02;;
14748;SDS011;7466;53.574;9.976;2022-07-11T12:01:54;2.72;;;1.60;;
14748;SDS011;7466;53.574;9.976;2022-07-11T12:04:23;1.73;;;1.40;;
14748;SDS011;7466;53.574;9.976;2022-07-11T12:06:50;1.60;;;1.50;;
14748;SDS011;7466;53.574;9.976;2022-07-11T12:09:18;1.90;;;1.50;;
14748;SDS011;7466;53.574;9.976;2022-07-11T12:11:48;2.05;;;1.50;;
14748;SDS011;7466;53.574;9.976;2022-07-11T12:14:36;5.63;;;1.10;;
14748;SDS011;7466;53.574;9.976;2022-07-11T12:17:03;1.52;;;1.17;;
14748;SDS011;7466;53.574;9.976;2022-07-11T12:19:33;0.95;;;0.90;;
14748;SDS011;7466;53.574;9.976;2022-07-11T12:22:03;1.92;;;1.05;;
14748;SDS011;7466;53.574;9.976;2022-07-11T12:24:31;1.88;;;1.50;;
14748;SDS011;7466;53.574;9.976;2022-07-11T12:26:59;2.03;;;1.50;;
14748;SDS011;7466;53.574;9.976;2022-07-11T12:29:26;1.30;;;1.20;;
14748;SDS011;7466;53.574;9.976;2022-07-11T12:31:54;1.83;;;1.40;;
14748;SDS011;7466;53.574;9.976;2022-07-11T12:34:23;1.65;;;1.33;;
14748;SDS011;7466;53.574;9.976;2022-07-11T12:37:02;2.70;;;1.05;;
14748;SDS011;7466;53.574;9.976;2022-07-11T12:39:30;1.45;;;1.35;;
14748;SDS011;7466;53.574;9.976;2022-07-11T12:41:59;1.30;;;1.00;;
14748;SDS011;7466;53.574;9.976;2022-07-11T12:44:27;2.15;;;1.10;;
14748;SDS011;7466;53.574;9.976;2022-07-11T12:47:13;2.22;;;1.15;;
14748;SDS011;7466;53.574;9.976;2022-07-11T12:49:42;1.77;;;1.27;;
14748;SDS011;7466;53.574;9.976;2022-07-11T12:52:12;1.85;;;1.27;;
14748;SDS011;7466;53.574;9.976;2022-07-11T12:54:39;2.30;;;1.30;;
14748;SDS011;7466;53.574;9.976;2022-07-11T12:57:07;1.38;;;0.90;;
14748;SDS011;7466;53.574;9.976;2022-07-11T12:59:36;2.35;;;1.00;;
14748;SDS011;7466;53.574;9.976;2022-07-11T13:02:06;1.10;;;0.85;;
14748;SDS011;7466;53.574;9.976;2022-07-11T13:04:36;0.90;;;0.82;;
14748;SDS011;7466;53.574;9.976;2022-07-11T13:07:19;1.17;;;1.00;;
14748;SDS011;7466;53.574;9.976;2022-07-11T13:10:07;1.92;;;0.80;;
14748;SDS011;7466;53.574;9.976;2022-07-11T13:12:36;0.80;;;0.80;;
14748;SDS011;7466;53.574;9.976;2022-07-11T13:15:03;0.60;;;0.60;;
14748;SDS011;7466;53.574;9.976;2022-07-11T13:17:38;0.98;;;0.80;;
14748;SDS011;7466;53.574;9.976;2022-07-11T13:20:07;0.98;;;0.60;;
14748;SDS011;7466;53.574;9.976;2022-07-11T13:22:39;1.90;;;0.80;;
14748;SDS011;7466;53.574;9.976;2022-07-11T13:25:06;0.93;;;0.75;;
14748;SDS011;7466;53.574;9.976;2022-07-11T13:27:34;1.70;;;0.80;;
14748;SDS011;7466;53.574;9.976;2022-07-11T13:30:01;2.45;;;1.10;;
14748;SDS011;7466;53.574;9.976;2022-07-11T13:32:35;0.73;;;0.73;;
14748;SDS011;7466;53.574;9.976;2022-07-11T13:35:02;0.82;;;0.80;;
14748;SDS011;7466;53.574;9.976;2022-07-11T13:37:30;1.02;;;0.98;;
14748;SDS011;7466;53.574;9.976;2022-07-11T13:39:58;1.45;;;0.77;;
14748;SDS011;7466;53.574;9.976;2022-07-11T13:42:25;0.75;;;0.70;;
14748;SDS011;7466;53.574;9.976;2022-07-11T13:44:53;0.73;;;0.73;;
14748;SDS011;7466;53.574;9.976;2022-07-11T13:47:20;0.93;;;0.85;;
14748;SDS011;7466;53.574;9.976;2022-07-11T13:49:47;0.73;;;0.70;;
14748;SDS011;7466;53.574;9.976;2022-07-11T13:52:14;0.90;;;0.60;;
14748;SDS011;7466;53.574;9.976;2022-07-11T13:54:41;0.65;;;0.63;;
14748;SDS011;7466;53.574;9.976;2022-07-11T13:57:09;0.80;;;0.57;;
14748;SDS011;7466;53.574;9.976;2022-07-11T13:59:36;1.15;;;0.63;;
14748;SDS011;7466;53.574;9.976;2022-07-11T14:02:04;0.50;;;0.50;;
14748;SDS011;7466;53.574;9.976;2022-07-11T14:04:31;3.53;;;0.60;;
14748;SDS011;7466;53.574;9.976;2022-07-11T14:06:59;0.80;;;0.57;;
14748;SDS011;7466;53.574;9.976;2022-07-11T14:09:26;0.60;;;0.52;;
14748;SDS011;7466;53.574;9.976;2022-07-11T14:11:53;1.10;;;0.80;;
14748;SDS011;7466;53.574;9.976;2022-07-11T14:14:22;0.45;;;0.45;;
14748;SDS011;7466;53.574;9.976;2022-07-11T14:16:49;2.55;;;0.43;;
14748;SDS011;7466;53.574;9.976;2022-07-11T14:19:15;0.60;;;0.60;;
14748;SDS011;7466;53.574;9.976;2022-07-11T14:21:42;0.45;;;0.40;;
14748;SDS011;7466;53.574;9.976;2022-07-11T14:24:12;0.65;;;0.60;;
14748;SDS011;7466;53.574;9.976;2022-07-11T14:26:42;0.50;;;0.50;;
14748;SDS011;7466;53.574;9.976;2022-07-11T14:29:11;0.68;;;0.50;;
14748;SDS011;7466;53.574;9.976;2022-07-11T14:31:45;0.50;;;0.50;;
14748;SDS011;7466;53.574;9.976;2022-07-11T14:34:12;0.45;;;0.43;;
14748;SDS011;7466;53.574;9.976;2022-07-11T14:36:39;0.55;;;0.40;;
14748;SDS011;7466;53.574;9.976;2022-07-11T14:39:06;1.33;;;0.55;;
14748;SDS011;7466;53.574;9.976;2022-07-11T14:41:33;1.33;;;0.63;;
14748;SDS011;7466;53.574;9.976;2022-07-11T14:44:01;0.75;;;0.75;;
14748;SDS011;7466;53.574;9.976;2022-07-11T14:46:28;0.80;;;0.60;;
14748;SDS011;7466;53.574;9.976;2022-07-11T14:48:56;0.60;;;0.60;;
14748;SDS011;7466;53.574;9.976;2022-07-11T14:51:24;0.65;;;0.65;;
14748;SDS011;7466;53.574;9.976;2022-07-11T14:53:52;1.77;;;0.50;;
14748;SDS011;7466;53.574;9.976;2022-07-11T14:56:19;1.10;;;0.63;;
14748;SDS011;7466;53.574;9.976;2022-07-11T14:58:46;0.50;;;0.50;;
14748;SDS011;7466;53.574;9.976;2022-07-11T15:01:13;1.13;;;0.55;;
14748;SDS011;7466;53.574;9.976;2022-07-11T15:03:40;0.82;;;0.43;;
14748;SDS011;7466;53.574;9.976;2022-07-11T15:06:11;0.77;;;0.57;;
14748;SDS011;7466;53.574;9.976;2022-07-11T15:08:39;0.90;;;0.60;;
14748;SDS011;7466;53.574;9.976;2022-07-11T15:11:24;0.73;;;0.60;;
14748;SDS011;7466;53.574;9.976;2022-07-11T15:14:09;0.77;;;0.40;;
14748;SDS011;7466;53.574;9.976;2022-07-11T15:16:37;1.08;;;0.70;;
14748;SDS011;7466;53.574;9.976;2022-07-11T15:19:05;2.10;;;0.40;;
14748;SDS011;7466;53.574;9.976;2022-07-11T15:21:34;1.65;;;0.70;;
14748;SDS011;7466;53.574;9.976;2022-07-11T15:24:02;0.82;;;0.45;;
14748;SDS011;7466;53.574;9.976;2022-07-11T15:26:29;0.30;;;0.30;;